createdAt,value
2024-02-29T00:00:02.304Z,100796.56
2024-02-29T00:00:34.358Z,100794.22
2024-02-29T00:01:06.904Z,100802.97
2024-02-29T00:01:41.573Z,100805.84
2024-02-29T00:02:13.992Z,100804.16
2024-02-29T00:02:45.995Z,100803.66
2024-02-29T00:03:17.926Z,100796.03
2024-02-29T00:03:50.160Z,100805.78
2024-02-29T00:04:25.945Z,100801.75
2024-02-29T00:04:57.864Z,100799.41
2024-02-29T00:05:29.893Z,100802.75
2024-02-29T00:06:01.928Z,100797.88
2024-02-29T00:06:33.981Z,100798.22
2024-02-29T00:07:06.356Z,100806.78
2024-02-29T00:07:39.738Z,100802.59
2024-02-29T00:08:12.084Z,100797.03
2024-02-29T00:08:43.995Z,100803.28
2024-02-29T00:09:15.922Z,100804.09
2024-02-29T00:09:47.914Z,100811.19
2024-02-29T00:10:20.265Z,100804.28
2024-02-29T00:10:52.251Z,100802.44
2024-02-29T00:11:24.198Z,100806.13
2024-02-29T00:11:56.643Z,100806.13
2024-02-29T00:12:28.588Z,100803.09
2024-02-29T00:13:00.922Z,100804.94
2024-02-29T00:13:32.887Z,100798.53
2024-02-29T00:14:04.838Z,100805.28
2024-02-29T00:14:38.524Z,100803.78
2024-02-29T00:15:11.814Z,100796.84
2024-02-29T00:15:44.060Z,100807.47
2024-02-29T00:16:16.171Z,100793.81
2024-02-29T00:16:48.122Z,100802.75
2024-02-29T00:17:21.298Z,100799.38
2024-02-29T00:17:53.326Z,100802.25
2024-02-29T00:18:25.388Z,100797.53
2024-02-29T00:18:57.355Z,100805.63
2024-02-29T00:19:29.447Z,100801.91
2024-02-29T00:20:01.478Z,100803.44
2024-02-29T00:20:36.012Z,100806.59
2024-02-29T00:21:08.057Z,100798.50
2024-02-29T00:21:42.125Z,100799.34
2024-02-29T00:22:14.397Z,100804.38
2024-02-29T00:22:47.869Z,100805.91
2024-02-29T00:23:22.443Z,100802.38
2024-02-29T00:23:54.362Z,100804.22
2024-02-29T00:24:26.583Z,100797.81
2024-02-29T00:24:58.577Z,100802.19
2024-02-29T00:25:30.525Z,100798.50
2024-02-29T00:26:02.438Z,100796.19
2024-02-29T00:26:34.376Z,100802.59
2024-02-29T00:27:06.891Z,100797.50
2024-02-29T00:27:39.034Z,100799.69
2024-02-29T00:28:11.124Z,100798.66
2024-02-29T00:28:43.079Z,100798.00
2024-02-29T00:29:15.084Z,100798.16
2024-02-29T00:29:47.001Z,100804.38
2024-02-29T00:30:18.972Z,100796.13
2024-02-29T00:30:51.224Z,100791.91
2024-02-29T00:31:23.651Z,100797.75
2024-02-29T00:32:02.121Z,100787.00
2024-02-29T00:32:35.335Z,100795.06
2024-02-29T00:33:07.449Z,100794.06
2024-02-29T00:33:41.167Z,100793.06
2024-02-29T00:34:13.710Z,100792.41
2024-02-29T00:34:46.128Z,100797.81
2024-02-29T00:35:18.174Z,100799.44
2024-02-29T00:35:55.380Z,100800.28
2024-02-29T00:36:30.727Z,100793.22
2024-02-29T00:37:02.894Z,100798.94
2024-02-29T00:37:34.812Z,100798.44
2024-02-29T00:38:06.764Z,100795.44
2024-02-29T00:38:39.918Z,100794.09
2024-02-29T00:39:15.231Z,100797.28
2024-02-29T00:39:47.836Z,100796.81
2024-02-29T00:40:21.815Z,100798.81
2024-02-29T00:40:54.104Z,100795.97
2024-02-29T00:41:26.113Z,100799.81
2024-02-29T00:41:58.456Z,100797.97
2024-02-29T00:42:30.454Z,100801.84
2024-02-29T00:43:03.679Z,100795.63
2024-02-29T00:43:35.662Z,100795.75
2024-02-29T00:44:07.910Z,100793.44
2024-02-29T00:44:39.837Z,100796.44
2024-02-29T00:45:11.776Z,100797.41
2024-02-29T00:45:46.439Z,100795.41
2024-02-29T00:46:18.425Z,100799.78
2024-02-29T00:46:50.414Z,100797.25
2024-02-29T00:47:22.331Z,100801.13
2024-02-29T00:47:56.421Z,100798.59
2024-02-29T00:48:28.683Z,100791.06
2024-02-29T00:49:00.749Z,100802.00
2024-02-29T00:49:33.338Z,100798.13
2024-02-29T00:50:05.868Z,100794.59
2024-02-29T00:50:40.740Z,100800.50
2024-02-29T00:51:12.727Z,100800.44
2024-02-29T00:51:47.668Z,100803.47
2024-02-29T00:52:19.680Z,100794.19
2024-02-29T00:52:54.049Z,100797.09
2024-02-29T00:53:26.030Z,100796.91
2024-02-29T00:53:57.932Z,100804.16
2024-02-29T00:54:30.009Z,100798.09
2024-02-29T00:55:03.568Z,100797.41
2024-02-29T00:55:35.561Z,100794.38
2024-02-29T00:56:07.532Z,100800.16
2024-02-29T00:56:39.537Z,100808.06
2024-02-29T00:57:11.471Z,100799.16
2024-02-29T00:57:45.458Z,100801.00
2024-02-29T00:58:17.421Z,100799.16
2024-02-29T00:58:49.443Z,100796.75
2024-02-29T00:59:21.382Z,100794.38
2024-02-29T00:59:53.323Z,100798.44
2024-02-29T01:00:25.259Z,100794.91
2024-02-29T01:00:57.596Z,100798.78
2024-02-29T01:01:29.746Z,100795.22
2024-02-29T01:02:02.317Z,100799.09
2024-02-29T01:02:34.346Z,100800.78
2024-02-29T01:03:06.383Z,100799.78
2024-02-29T01:03:38.498Z,100797.75
2024-02-29T01:04:10.882Z,100801.69
2024-02-29T01:04:42.881Z,100797.13
2024-02-29T01:05:16.009Z,100797.47
2024-02-29T01:05:47.946Z,100802.84
2024-02-29T01:06:19.859Z,100796.75
2024-02-29T01:06:51.878Z,100801.47
2024-02-29T01:07:23.810Z,100796.75
2024-02-29T01:07:56.015Z,100798.44
2024-02-29T01:08:27.935Z,100793.75
2024-02-29T01:08:59.913Z,100795.91
2024-02-29T01:09:31.992Z,100796.06
2024-02-29T01:10:08.487Z,100787.00
2024-02-29T01:10:40.481Z,100792.72
2024-02-29T01:11:12.640Z,100787.31
2024-02-29T01:11:44.670Z,100789.84
2024-02-29T01:12:16.688Z,100791.03
2024-02-29T01:12:48.672Z,100795.03
2024-02-29T01:13:20.742Z,100784.97
2024-02-29T01:13:52.656Z,100787.47
2024-02-29T01:14:24.569Z,100782.94
2024-02-29T01:14:56.593Z,100787.16
2024-02-29T01:15:28.568Z,100779.91
2024-02-29T01:16:00.552Z,100784.28
2024-02-29T01:16:32.563Z,100794.56
2024-02-29T01:17:04.502Z,100781.22
2024-02-29T01:17:36.887Z,100788.66
2024-02-29T01:18:12.038Z,100787.81
2024-02-29T01:18:44.022Z,100777.38
2024-02-29T01:19:16.293Z,100786.81
2024-02-29T01:19:48.357Z,100780.25
2024-02-29T01:20:20.537Z,100780.94
2024-02-29T01:20:52.461Z,100789.84
2024-02-29T01:21:24.385Z,100787.00
2024-02-29T01:21:56.507Z,100789.69
2024-02-29T01:22:28.559Z,100786.31
2024-02-29T01:23:00.536Z,100796.25
2024-02-29T01:23:32.469Z,100786.97
2024-02-29T01:24:04.551Z,100791.19
2024-02-29T01:24:36.991Z,100795.03
2024-02-29T01:25:09.434Z,100795.03
2024-02-29T01:25:41.549Z,100793.38
2024-02-29T01:26:13.537Z,100794.38
2024-02-29T01:26:45.540Z,100790.50
2024-02-29T01:27:17.514Z,100793.88
2024-02-29T01:27:49.517Z,100783.63
2024-02-29T01:28:21.550Z,100781.09
2024-02-29T01:28:53.541Z,100789.34
2024-02-29T01:29:26.971Z,100781.09
2024-02-29T01:29:58.980Z,100782.78
2024-02-29T01:30:31.015Z,100783.63
2024-02-29T01:31:03.525Z,100788.00
2024-02-29T01:31:35.537Z,100789.84
2024-02-29T01:32:15.754Z,100789.84
2024-02-29T01:32:54.154Z,100790.19
2024-02-29T01:33:26.257Z,100784.97
2024-02-29T01:33:58.366Z,100786.47
2024-02-29T01:34:30.330Z,100779.56
2024-02-29T01:35:02.436Z,100782.06
2024-02-29T01:35:34.359Z,100788.81
2024-02-29T01:36:08.009Z,100780.75
2024-02-29T01:36:42.730Z,100784.28
2024-02-29T01:37:15.326Z,100785.78
2024-02-29T01:37:47.540Z,100780.22
2024-02-29T01:38:19.456Z,100779.22
2024-02-29T01:38:51.374Z,100780.91
2024-02-29T01:39:23.329Z,100783.28
2024-02-29T01:39:55.326Z,100777.72
2024-02-29T01:40:27.352Z,100776.84
2024-02-29T01:40:59.361Z,100778.38
2024-02-29T01:41:31.572Z,100788.66
2024-02-29T01:42:04.193Z,100774.88
2024-02-29T01:42:36.177Z,100780.25
2024-02-29T01:43:08.286Z,100775.88
2024-02-29T01:43:40.237Z,100776.03
2024-02-29T01:44:12.184Z,100782.44
2024-02-29T01:45:04.464Z,100781.56
2024-02-29T01:45:36.819Z,100773.78
2024-02-29T01:46:13.383Z,100778.50
2024-02-29T01:46:45.929Z,100774.47
2024-02-29T01:47:20.273Z,100778.16
2024-02-29T01:47:52.326Z,100774.31
2024-02-29T01:48:25.104Z,100773.50
2024-02-29T01:48:57.729Z,100775.00
2024-02-29T01:49:29.954Z,100772.47
2024-02-29T01:50:05.440Z,100770.78
2024-02-29T01:50:38.850Z,100780.41
2024-02-29T01:51:11.347Z,100781.03
2024-02-29T01:51:44.760Z,100772.78
2024-02-29T01:52:17.636Z,100768.78
2024-02-29T01:52:50.040Z,100775.84
2024-02-29T01:53:22.022Z,100766.03
2024-02-29T01:53:53.978Z,100777.47
2024-02-29T01:54:25.926Z,100772.31
2024-02-29T01:55:00.491Z,100775.69
2024-02-29T01:55:32.686Z,100774.47
2024-02-29T01:56:04.997Z,100771.78
2024-02-29T01:56:37.146Z,100766.53
2024-02-29T01:57:10.276Z,100772.44
2024-02-29T01:57:42.798Z,100774.78
2024-02-29T01:58:14.993Z,100766.88
2024-02-29T01:58:47.097Z,100775.78
2024-02-29T01:59:19.172Z,100774.78
2024-02-29T01:59:51.321Z,100769.41
2024-02-29T02:00:23.290Z,100771.78
2024-02-29T02:00:55.314Z,100768.22
2024-02-29T02:01:27.676Z,100766.19
2024-02-29T02:01:59.740Z,100770.06
2024-02-29T02:02:31.738Z,100762.81
2024-02-29T02:03:03.796Z,100768.88
2024-02-29T02:03:35.909Z,100770.06
2024-02-29T02:04:10.687Z,100764.84
2024-02-29T02:04:42.637Z,100766.03
2024-02-29T02:05:14.836Z,100767.38
2024-02-29T02:05:46.737Z,100769.72
2024-02-29T02:06:18.678Z,100766.38
2024-02-29T02:06:50.654Z,100767.38
2024-02-29T02:07:22.824Z,100762.16
2024-02-29T02:07:54.956Z,100766.84
2024-02-29T02:08:30.701Z,100762.47
2024-02-29T02:09:03.007Z,100756.41
2024-02-29T02:09:36.411Z,100758.09
2024-02-29T02:10:11.777Z,100754.22
2024-02-29T02:10:43.837Z,100760.31
2024-02-29T02:11:15.869Z,100756.94
2024-02-29T02:11:47.811Z,100746.66
2024-02-29T02:12:20.383Z,100759.28
2024-02-29T02:12:52.398Z,100757.28
2024-02-29T02:13:24.522Z,100751.38
2024-02-29T02:13:57.082Z,100746.31
2024-02-29T02:14:29.185Z,100756.56
2024-02-29T02:15:03.758Z,100757.25
2024-02-29T02:15:35.748Z,100757.09
2024-02-29T02:16:09.953Z,100754.56
2024-02-29T02:16:42.250Z,100755.25
2024-02-29T02:17:14.476Z,100756.41
2024-02-29T02:17:46.491Z,100762.81
2024-02-29T02:18:18.445Z,100753.56
2024-02-29T02:18:50.368Z,100766.50
2024-02-29T02:19:22.320Z,100754.72
2024-02-29T02:19:54.251Z,100765.16
2024-02-29T02:20:26.179Z,100760.63
2024-02-29T02:20:58.209Z,100759.78
2024-02-29T02:21:30.183Z,100763.31
2024-02-29T02:22:05.416Z,100766.50
2024-02-29T02:22:37.492Z,100764.50
2024-02-29T02:23:09.597Z,100757.09
2024-02-29T02:23:41.536Z,100764.50
2024-02-29T02:24:13.454Z,100765.50
2024-02-29T02:24:45.399Z,100762.81
2024-02-29T02:25:18.013Z,100758.09
2024-02-29T02:25:50.128Z,100760.13
2024-02-29T02:26:22.048Z,100765.50
2024-02-29T02:26:53.986Z,100758.25
2024-02-29T02:27:25.908Z,100762.81
2024-02-29T02:27:57.909Z,100760.13
2024-02-29T02:28:30.576Z,100765.34
2024-02-29T02:29:03.816Z,100755.41
2024-02-29T02:29:35.733Z,100760.28
2024-02-29T02:30:08.402Z,100757.59
2024-02-29T02:30:40.827Z,100759.94
2024-02-29T02:31:13.720Z,100755.56
2024-02-29T02:31:45.733Z,100761.25
2024-02-29T02:32:17.806Z,100756.56
2024-02-29T02:32:49.759Z,100754.56
2024-02-29T02:33:21.935Z,100759.09
2024-02-29T02:33:53.869Z,100755.72
2024-02-29T02:34:41.095Z,100758.44
2024-02-29T02:36:05.795Z,100757.03
2024-02-29T02:36:37.780Z,100758.88
2024-02-29T02:37:09.885Z,100749.81
2024-02-29T02:37:41.913Z,100756.19
2024-02-29T02:38:14.166Z,100756.19
2024-02-29T02:38:46.087Z,100761.75
2024-02-29T02:39:18.065Z,100759.03
2024-02-29T02:39:50.016Z,100755.50
2024-02-29T02:40:21.977Z,100751.66
2024-02-29T02:40:53.875Z,100759.56
2024-02-29T02:41:25.898Z,100761.91
2024-02-29T02:41:58.033Z,100754.84
2024-02-29T02:42:29.959Z,100755.84
2024-02-29T02:43:02.543Z,100747.09
2024-02-29T02:43:34.621Z,100751.97
2024-02-29T02:44:06.535Z,100747.75
2024-02-29T02:44:38.460Z,100758.38
2024-02-29T02:45:10.482Z,100761.91
2024-02-29T02:45:42.410Z,100757.53
2024-02-29T02:46:14.773Z,100759.22
2024-02-29T02:46:46.705Z,100756.69
2024-02-29T02:47:18.639Z,100757.69
2024-02-29T02:47:50.576Z,100755.16
2024-02-29T02:48:22.588Z,100752.47
2024-02-29T02:48:54.519Z,100753.81
2024-02-29T02:49:26.465Z,100751.31
2024-02-29T02:49:58.382Z,100758.38
2024-02-29T02:50:30.387Z,100755.47
2024-02-29T02:51:02.383Z,100758.19
2024-02-29T02:51:34.439Z,100754.31
2024-02-29T02:52:06.413Z,100756.50
2024-02-29T02:52:38.329Z,100752.97
2024-02-29T02:53:10.247Z,100754.66
2024-02-29T02:53:42.230Z,100752.97
2024-02-29T02:54:14.198Z,100753.81
2024-02-29T02:54:46.144Z,100756.50
2024-02-29T02:55:18.100Z,100758.50
2024-02-29T02:55:50.057Z,100751.44
2024-02-29T02:56:21.975Z,100762.19
2024-02-29T02:56:53.885Z,100762.19
2024-02-29T02:57:25.798Z,100750.88
2024-02-29T02:57:57.742Z,100760.63
2024-02-29T02:58:29.698Z,100753.06
2024-02-29T02:59:01.739Z,100761.13
2024-02-29T02:59:35.934Z,100766.84
2024-02-29T03:00:11.426Z,100764.50
2024-02-29T03:00:43.411Z,100761.13
2024-02-29T03:01:15.467Z,100766.66
2024-02-29T03:01:47.514Z,100766.19
2024-02-29T03:02:19.808Z,100768.19
2024-02-29T03:02:52.413Z,100766.03
2024-02-29T03:03:24.457Z,100766.84
2024-02-29T03:03:56.919Z,100764.81
2024-02-29T03:04:28.938Z,100764.81
2024-02-29T03:05:00.878Z,100775.75
2024-02-29T03:05:32.851Z,100772.53
2024-02-29T03:06:05.001Z,100768.53
2024-02-29T03:06:36.977Z,100771.88
2024-02-29T03:07:08.996Z,100770.03
2024-02-29T03:07:40.974Z,100777.28
2024-02-29T03:08:15.342Z,100769.19
2024-02-29T03:08:47.251Z,100771.72
2024-02-29T03:09:19.176Z,100770.88
2024-02-29T03:09:51.189Z,100766.50
2024-02-29T03:10:23.258Z,100769.03
2024-02-29T03:10:55.256Z,100768.19
2024-02-29T03:11:27.422Z,100772.91
2024-02-29T03:11:59.375Z,100765.16
2024-02-29T03:12:31.311Z,100775.06
2024-02-29T03:13:03.373Z,100767.69
2024-02-29T03:13:35.338Z,100770.22
2024-02-29T03:14:07.403Z,100770.38
2024-02-29T03:14:39.357Z,100773.06
2024-02-29T03:15:11.409Z,100767.16
2024-02-29T03:15:43.384Z,100773.38
2024-02-29T03:16:23.017Z,100773.91
2024-02-29T03:16:55.099Z,100781.28
2024-02-29T03:17:27.617Z,100771.38
2024-02-29T03:17:59.712Z,100771.53
2024-02-29T03:18:31.699Z,100774.22
2024-02-29T03:19:06.139Z,100772.38
2024-02-29T03:19:38.135Z,100772.53
2024-02-29T03:20:13.565Z,100773.22
2024-02-29T03:20:45.515Z,100777.91
2024-02-29T03:21:17.530Z,100770.84
2024-02-29T03:21:49.497Z,100771.69
2024-02-29T03:22:21.520Z,100777.06
2024-02-29T03:22:53.451Z,100771.84
2024-02-29T03:23:25.561Z,100776.22
2024-02-29T03:23:57.610Z,100777.38
2024-02-29T03:24:29.523Z,100773.16
2024-02-29T03:25:01.550Z,100781.91
2024-02-29T03:25:33.501Z,100773.84
2024-02-29T03:26:06.671Z,100773.69
2024-02-29T03:26:38.654Z,100781.06
2024-02-29T03:27:12.223Z,100784.91
2024-02-29T03:27:44.230Z,100776.53
2024-02-29T03:28:16.338Z,100781.78
2024-02-29T03:28:48.436Z,100779.22
2024-02-29T03:29:20.371Z,100771.97
2024-02-29T03:29:52.955Z,100780.94
2024-02-29T03:30:25.072Z,100772.31
2024-02-29T03:30:58.077Z,100780.50
2024-02-29T03:31:30.072Z,100777.81
2024-02-29T03:32:02.155Z,100774.28
2024-02-29T03:32:34.180Z,100778.53
2024-02-29T03:33:06.272Z,100781.22
2024-02-29T03:33:38.313Z,100774.84
2024-02-29T03:34:10.602Z,100781.38
2024-02-29T03:34:42.593Z,100782.91
2024-02-29T03:35:14.564Z,100789.28
2024-02-29T03:35:46.639Z,100778.53
2024-02-29T03:36:18.595Z,100786.03
2024-02-29T03:36:50.589Z,100782.50
2024-02-29T03:37:22.739Z,100782.66
2024-02-29T03:37:54.773Z,100782.84
2024-02-29T03:38:26.706Z,100783.84
2024-02-29T03:38:59.223Z,100789.06
2024-02-29T03:39:31.306Z,100777.78
2024-02-29T03:40:03.377Z,100785.53
2024-02-29T03:40:35.343Z,100779.13
2024-02-29T03:41:09.928Z,100782.66
2024-02-29T03:41:41.873Z,100785.38
2024-02-29T03:42:13.764Z,100779.13
2024-02-29T03:42:45.796Z,100788.38
2024-02-29T03:43:17.764Z,100786.53
2024-02-29T03:43:49.726Z,100778.47
2024-02-29T03:44:21.654Z,100782.16
2024-02-29T03:44:57.702Z,100782.84
2024-02-29T03:45:29.908Z,100781.81
2024-02-29T03:46:02.975Z,100785.38
2024-02-29T03:46:36.975Z,100784.53
2024-02-29T03:47:09.084Z,100782.50
2024-02-29T03:47:41.044Z,100775.75
2024-02-29T03:48:13.035Z,100782.84
2024-02-29T03:48:45.003Z,100791.22
2024-02-29T03:49:17.227Z,100779.47
2024-02-29T03:49:49.188Z,100782.16
2024-02-29T03:50:21.181Z,100783.84
2024-02-29T03:50:54.328Z,100783.84
2024-02-29T03:51:26.918Z,100783.00
2024-02-29T03:51:58.909Z,100778.78
2024-02-29T03:52:30.876Z,100783.16
2024-02-29T03:53:02.897Z,100791.22
2024-02-29T03:53:34.843Z,100780.16
2024-02-29T03:54:06.765Z,100784.84
2024-02-29T03:54:38.734Z,100784.31
2024-02-29T03:55:11.115Z,100784.47
2024-02-29T03:55:44.887Z,100787.00
2024-02-29T03:56:16.845Z,100787.00
2024-02-29T03:56:48.845Z,100781.16
2024-02-29T03:57:20.782Z,100786.53
2024-02-29T03:57:53.152Z,100788.00
2024-02-29T03:58:25.081Z,100783.78
2024-02-29T03:58:56.991Z,100778.25
2024-02-29T03:59:29.746Z,100781.41
2024-02-29T04:00:01.678Z,100784.09
2024-02-29T04:00:33.661Z,100781.72
2024-02-29T04:01:06.746Z,100778.72
2024-02-29T04:01:38.902Z,100782.44
2024-02-29T04:02:10.962Z,100777.03
2024-02-29T04:02:42.911Z,100774.47
2024-02-29T04:03:15.112Z,100767.13
2024-02-29T04:03:47.043Z,100774.72
2024-02-29T04:04:20.256Z,100773.72
2024-02-29T04:04:52.585Z,100769.34
2024-02-29T04:05:25.760Z,100773.19
2024-02-29T04:05:58.270Z,100764.56
2024-02-29T04:06:30.201Z,100766.72
2024-02-29T04:07:02.141Z,100772.94
2024-02-29T04:07:35.318Z,100762.75
2024-02-29T04:08:12.459Z,100767.66
2024-02-29T04:08:44.503Z,100767.66
2024-02-29T04:09:16.561Z,100767.97
2024-02-29T04:09:48.462Z,100765.56
2024-02-29T04:10:20.448Z,100767.25
2024-02-29T04:10:52.424Z,100774.34
2024-02-29T04:11:24.807Z,100764.28
2024-02-29T04:11:56.756Z,100767.97
2024-02-29T04:12:28.929Z,100768.97
2024-02-29T04:13:01.402Z,100772.50
2024-02-29T04:13:33.334Z,100766.97
2024-02-29T04:14:06.196Z,100773.88
2024-02-29T04:14:40.061Z,100772.19
2024-02-29T04:15:12.222Z,100767.97
2024-02-29T04:15:45.273Z,100772.34
2024-02-29T04:16:19.347Z,100772.88
2024-02-29T04:16:51.385Z,100767.66
2024-02-29T04:17:23.329Z,100768.13
2024-02-29T04:17:55.353Z,100775.31
2024-02-29T04:18:27.298Z,100781.03
2024-02-29T04:18:59.265Z,100773.78
2024-02-29T04:19:31.746Z,100773.63
2024-02-29T04:20:03.804Z,100777.88
2024-02-29T04:20:35.722Z,100775.19
2024-02-29T04:21:07.635Z,100771.78
2024-02-29T04:21:47.179Z,100777.34
2024-02-29T04:22:19.273Z,100779.03
2024-02-29T04:22:51.285Z,100780.03
2024-02-29T04:23:23.234Z,100771.09
2024-02-29T04:23:55.135Z,100765.03
2024-02-29T04:24:27.441Z,100765.22
2024-02-29T04:24:59.394Z,100772.28
2024-02-29T04:25:31.334Z,100762.69
2024-02-29T04:26:03.890Z,100768.91
2024-02-29T04:26:35.804Z,100765.22
2024-02-29T04:27:08.132Z,100767.69
2024-02-29T04:27:40.124Z,100766.69
2024-02-29T04:28:12.987Z,100762.16
2024-02-29T04:28:44.962Z,100763.31
2024-02-29T04:29:16.873Z,100767.38
2024-02-29T04:29:48.781Z,100764.69
2024-02-29T04:30:20.738Z,100761.16
2024-02-29T04:30:52.678Z,100762.47
2024-02-29T04:31:24.701Z,100763.16
2024-02-29T04:31:56.629Z,100760.47
2024-02-29T04:32:28.553Z,100760.31
2024-02-29T04:33:01.694Z,100756.47
2024-02-29T04:33:33.980Z,100766.84
2024-02-29T04:34:06.212Z,100761.47
2024-02-29T04:34:38.319Z,100767.44
2024-02-29T04:35:12.815Z,100760.09
2024-02-29T04:35:44.815Z,100767.00
2024-02-29T04:36:17.359Z,100761.78
2024-02-29T04:36:49.309Z,100757.94
2024-02-29T04:37:21.328Z,100762.78
2024-02-29T04:37:53.247Z,100764.16
2024-02-29T04:38:25.904Z,100764.47
2024-02-29T04:38:57.824Z,100764.22
2024-02-29T04:39:29.762Z,100770.59
2024-02-29T04:40:01.842Z,100769.75
2024-02-29T04:40:34.058Z,100766.75
2024-02-29T04:41:05.992Z,100757.84
2024-02-29T04:41:37.906Z,100767.31
2024-02-29T04:42:09.845Z,100762.63
2024-02-29T04:42:41.879Z,100769.84
2024-02-29T04:43:13.990Z,100756.69
2024-02-29T04:43:45.957Z,100762.94
2024-02-29T04:44:17.984Z,100757.41
2024-02-29T04:44:49.908Z,100758.94
2024-02-29T04:45:24.591Z,100761.63
2024-02-29T04:45:56.948Z,100764.00
2024-02-29T04:46:28.892Z,100767.84
2024-02-29T04:47:00.859Z,100763.47
2024-02-29T04:47:32.826Z,100772.22
2024-02-29T04:48:05.929Z,100762.63
2024-02-29T04:48:37.943Z,100765.63
2024-02-29T04:49:10.317Z,100769.84
2024-02-29T04:49:42.274Z,100771.53
2024-02-29T04:50:14.260Z,100762.78
2024-02-29T04:50:46.290Z,100772.81
2024-02-29T04:51:18.261Z,100772.69
2024-02-29T04:51:50.423Z,100770.28
2024-02-29T04:52:22.904Z,100767.59
2024-02-29T04:52:56.364Z,100771.13
2024-02-29T04:53:29.161Z,100775.50
2024-02-29T04:54:03.723Z,100773.81
2024-02-29T04:54:39.881Z,100771.84
2024-02-29T04:55:12.144Z,100778.06
2024-02-29T04:55:46.497Z,100779.06
2024-02-29T04:56:18.480Z,100781.88
2024-02-29T04:56:50.458Z,100779.91
2024-02-29T04:57:22.362Z,100781.88
2024-02-29T04:57:54.345Z,100774.81
2024-02-29T04:58:26.452Z,100781.38
2024-02-29T04:58:58.539Z,100781.19
2024-02-29T04:59:33.943Z,100777.34
2024-02-29T05:00:11.860Z,100779.53
2024-02-29T05:00:49.139Z,100779.84
2024-02-29T05:01:22.571Z,100778.84
2024-02-29T05:01:55.063Z,100781.19
2024-02-29T05:02:28.031Z,100774.66
2024-02-29T05:03:00.139Z,100782.22
2024-02-29T05:03:32.107Z,100779.53
2024-02-29T05:04:04.834Z,100776.81
2024-02-29T05:04:37.286Z,100772.13
2024-02-29T05:05:11.937Z,100776.81
2024-02-29T05:05:43.873Z,100774.81
2024-02-29T05:06:18.199Z,100778.34
2024-02-29T05:06:51.086Z,100783.06
2024-02-29T05:07:23.362Z,100774.47
2024-02-29T05:07:55.996Z,100778.16
2024-02-29T05:08:29.482Z,100775.00
2024-02-29T05:09:01.495Z,100781.38
2024-02-29T05:09:33.915Z,100775.16
2024-02-29T05:10:09.125Z,100776.31
2024-02-29T05:10:41.235Z,100780.16
2024-02-29T05:11:14.173Z,100779.16
2024-02-29T05:11:46.651Z,100773.78
2024-02-29T05:12:19.282Z,100778.69
2024-02-29T05:12:56.987Z,100781.16
2024-02-29T05:13:28.957Z,100780.16
2024-02-29T05:14:03.214Z,100780.53
2024-02-29T05:14:35.284Z,100785.22
2024-02-29T05:15:07.865Z,100785.53
2024-02-29T05:15:40.995Z,100779.31
2024-02-29T05:16:16.432Z,100781.00
2024-02-29T05:16:49.875Z,100775.81
2024-02-29T05:17:22.975Z,100770.28
2024-02-29T05:17:54.929Z,100773.97
2024-02-29T05:18:29.010Z,100776.97
2024-02-29T05:19:01.045Z,100771.28
2024-02-29T05:19:33.357Z,100773.28
2024-02-29T05:20:06.899Z,100774.31
2024-02-29T05:20:39.956Z,100774.47
2024-02-29T05:21:14.624Z,100773.28
2024-02-29T05:21:48.373Z,100776.66
2024-02-29T05:22:21.980Z,100780.53
2024-02-29T05:22:55.202Z,100788.59
2024-02-29T05:23:29.841Z,100784.53
2024-02-29T05:24:02.957Z,100781.16
2024-02-29T05:24:34.938Z,100783.84
2024-02-29T05:25:09.391Z,100782.47
2024-02-29T05:25:41.325Z,100793.22
2024-02-29T05:26:13.454Z,100787.38
2024-02-29T05:26:46.525Z,100785.69
2024-02-29T05:27:20.702Z,100781.22
2024-02-29T05:27:54.688Z,100785.75
2024-02-29T05:28:27.539Z,100773.72
2024-02-29T05:28:59.582Z,100781.47
2024-02-29T05:29:32.856Z,100777.41
2024-02-29T05:30:05.653Z,100775.41
2024-02-29T05:30:37.578Z,100785.75
2024-02-29T05:31:10.245Z,100783.91
2024-02-29T05:31:42.277Z,100771.72
2024-02-29T05:32:17.368Z,100780.47
2024-02-29T05:32:50.485Z,100779.63
2024-02-29T05:33:22.449Z,100775.94
2024-02-29T05:33:54.378Z,100779.94
2024-02-29T05:34:26.385Z,100774.41
2024-02-29T05:34:58.402Z,100776.25
2024-02-29T05:35:30.445Z,100778.94
2024-02-29T05:36:02.714Z,100774.56
2024-02-29T05:36:34.641Z,100780.22
2024-02-29T05:37:06.650Z,100774.84
2024-02-29T05:37:38.625Z,100771.16
2024-02-29T05:38:10.588Z,100773.72
2024-02-29T05:38:42.602Z,100780.78
2024-02-29T05:39:14.528Z,100779.09
2024-02-29T05:39:46.493Z,100777.25
2024-02-29T05:40:18.641Z,100774.41
2024-02-29T05:40:50.639Z,100772.72
2024-02-29T05:41:22.593Z,100777.09
2024-02-29T05:41:57.333Z,100772.88
2024-02-29T05:42:29.662Z,100772.56
2024-02-29T05:43:04.854Z,100773.25
2024-02-29T05:43:37.384Z,100777.63
2024-02-29T05:44:09.987Z,100780.47
2024-02-29T05:44:41.956Z,100782.16
2024-02-29T05:45:13.984Z,100779.16
2024-02-29T05:45:45.960Z,100773.94
2024-02-29T05:46:18.014Z,100782.53
2024-02-29T05:46:50.011Z,100781.53
2024-02-29T05:47:22.124Z,100779.69
2024-02-29T05:47:54.125Z,100780.84
2024-02-29T05:48:26.183Z,100780.69
2024-02-29T05:48:58.797Z,100786.38
2024-02-29T05:49:30.733Z,100777.31
2024-02-29T05:50:02.658Z,100782.69
2024-02-29T05:50:34.778Z,100783.22
2024-02-29T05:51:08.730Z,100786.22
2024-02-29T05:51:40.733Z,100793.13
2024-02-29T05:52:12.757Z,100789.44
2024-02-29T05:52:44.701Z,100785.91
2024-02-29T05:53:16.632Z,100793.28
2024-02-29T05:53:48.681Z,100789.28
2024-02-29T05:54:20.691Z,100789.59
2024-02-29T05:54:52.662Z,100793.97
2024-02-29T05:55:24.641Z,100784.91
2024-02-29T05:55:56.650Z,100785.75
2024-02-29T05:56:28.556Z,100793.81
2024-02-29T05:57:02.751Z,100783.88
2024-02-29T05:57:36.461Z,100792.81
2024-02-29T05:58:08.436Z,100789.13
2024-02-29T05:58:40.544Z,100793.66
2024-02-29T05:59:13.895Z,100790.78
2024-02-29T05:59:45.888Z,100788.28
2024-02-29T06:00:20.980Z,100793.66
2024-02-29T06:00:53.457Z,100787.06
2024-02-29T06:01:25.573Z,100793.28
2024-02-29T06:01:57.631Z,100790.59
2024-02-29T06:02:29.580Z,100788.59
2024-02-29T06:03:01.670Z,100795.66
2024-02-29T06:03:33.647Z,100789.28
2024-02-29T06:04:05.963Z,100788.59
2024-02-29T06:04:37.941Z,100791.97
2024-02-29T06:05:10.161Z,100793.38
2024-02-29T06:05:42.136Z,100792.53
2024-02-29T06:06:16.653Z,100792.66
2024-02-29T06:06:49.123Z,100796.19
2024-02-29T06:07:21.070Z,100793.50
2024-02-29T06:07:53.050Z,100791.81
2024-02-29T06:08:24.985Z,100789.97
2024-02-29T06:08:56.907Z,100788.97
2024-02-29T06:09:28.897Z,100793.38
2024-02-29T06:10:00.874Z,100797.91
2024-02-29T06:10:32.909Z,100785.28
2024-02-29T06:11:04.978Z,100797.41
2024-02-29T06:11:36.921Z,100793.88
2024-02-29T06:12:09.478Z,100801.63